createdAt,value
2022-09-23T00:00:07.069Z,2.88
2022-09-23T00:05:14.748Z,2.9
2022-09-23T00:10:22.667Z,2.9
2022-09-23T00:15:28.951Z,2.89
2022-09-23T00:20:36.105Z,2.89
2022-09-23T00:25:45.117Z,2.89
2022-09-23T00:30:52.607Z,2.9
2022-09-23T00:36:00.002Z,2.89
2022-09-23T00:41:07.751Z,2.89
2022-09-23T00:46:15.284Z,2.89
2022-09-23T00:51:21.868Z,2.9
2022-09-23T00:56:29.620Z,2.89
2022-09-23T01:01:37.820Z,2.89
2022-09-23T01:06:44.734Z,2.88
2022-09-23T01:11:53.565Z,2.88
2022-09-23T01:17:01.670Z,2.89
2022-09-23T01:22:08.660Z,2.88
2022-09-23T01:27:15.508Z,2.89
2022-09-23T01:32:23.334Z,2.88
2022-09-23T01:37:40.330Z,2.88
2022-09-23T01:42:47.774Z,2.88
2022-09-23T01:47:56.268Z,2.88
2022-09-23T01:53:04.784Z,2.88
2022-09-23T01:58:12.123Z,2.88
2022-09-23T02:03:20.093Z,2.88
2022-09-23T02:08:28.471Z,2.88
2022-09-23T02:13:35.671Z,2.89
2022-09-23T02:18:44.044Z,2.89
2022-09-23T02:23:51.324Z,2.88
2022-09-23T02:28:59.075Z,2.88
2022-09-23T02:34:08.054Z,2.88
2022-09-23T02:39:17.018Z,2.89
2022-09-23T02:44:24.749Z,2.88
2022-09-23T02:49:40.745Z,2.88
2022-09-23T02:54:47.943Z,2.87
2022-09-23T02:59:55.768Z,2.88
2022-09-23T03:05:03.669Z,2.87
2022-09-23T03:10:11.452Z,2.88
2022-09-23T03:15:19.290Z,2.88
2022-09-23T03:20:27.447Z,2.87
2022-09-23T03:25:37.364Z,2.88
2022-09-23T03:30:45.327Z,2.88
2022-09-23T03:35:52.163Z,2.88
2022-09-23T03:41:00.408Z,2.87
2022-09-23T03:46:09.152Z,2.88
2022-09-23T03:51:17.369Z,2.88
2022-09-23T03:56:24.590Z,2.87
2022-09-23T04:01:32.540Z,2.88
2022-09-23T04:06:39.674Z,2.89
2022-09-23T04:11:46.869Z,2.88
2022-09-23T04:17:03.336Z,2.88
2022-09-23T04:22:10.811Z,2.88
2022-09-23T04:27:18.263Z,2.87
2022-09-23T04:32:25.217Z,2.88
2022-09-23T04:37:33.014Z,2.88
2022-09-23T04:42:41.468Z,2.88
2022-09-23T04:47:48.912Z,2.87
2022-09-23T04:52:56.578Z,2.88
2022-09-23T04:58:03.130Z,2.88
2022-09-23T05:03:11.363Z,2.87
2022-09-23T05:08:20.070Z,2.88
2022-09-23T05:13:28.460Z,2.88
2022-09-23T05:18:35.819Z,2.88
2022-09-23T05:23:44.195Z,2.88
2022-09-23T05:28:52.601Z,2.89
2022-09-23T05:34:00.574Z,2.88
2022-09-23T05:39:08.361Z,2.89
2022-09-23T05:44:15.792Z,2.88
2022-09-23T05:49:25.051Z,2.88
2022-09-23T05:54:33.374Z,2.88
2022-09-23T05:59:40.767Z,2.88
2022-09-23T06:04:48.372Z,2.88
2022-09-23T06:09:57.778Z,2.89
2022-09-23T06:15:06.362Z,2.9
2022-09-23T06:20:14.336Z,2.91
2022-09-23T06:25:22.539Z,2.9
2022-09-23T06:30:32.261Z,2.92
2022-09-23T06:35:39.194Z,2.92
2022-09-23T06:40:47.026Z,2.94
2022-09-23T06:45:54.819Z,2.95
2022-09-23T06:51:02.864Z,2.95
2022-09-23T06:56:11.884Z,2.96
2022-09-23T07:01:18.992Z,2.95
2022-09-23T07:06:26.338Z,2.96
2022-09-23T07:11:34.244Z,2.97
2022-09-23T07:16:41.218Z,2.96
2022-09-23T07:21:48.943Z,2.97
2022-09-23T07:26:56.871Z,2.96
2022-09-23T07:32:04.309Z,2.97
2022-09-23T07:37:11.966Z,2.97
2022-09-23T07:42:19.770Z,2.97
2022-09-23T07:47:26.316Z,2.97
2022-09-23T07:52:34.245Z,2.98
2022-09-23T07:57:42.511Z,2.97
2022-09-23T08:02:50.639Z,2.97
2022-09-23T08:07:57.975Z,2.97
2022-09-23T08:13:06.069Z,2.97
2022-09-23T08:18:14.427Z,2.97
2022-09-23T08:23:22.377Z,2.97
2022-09-23T08:28:30.587Z,2.97
2022-09-23T08:33:38.829Z,2.97
2022-09-23T08:38:46.670Z,2.97
2022-09-23T08:43:54.341Z,2.98
2022-09-23T08:49:01.753Z,2.98
2022-09-23T08:54:09.405Z,2.97
2022-09-23T08:59:16.786Z,2.97
2022-09-23T09:04:24.067Z,2.97
2022-09-23T09:09:31.242Z,2.97
2022-09-23T09:14:38.978Z,2.98
2022-09-23T09:19:46.828Z,2.98
2022-09-23T09:24:56.334Z,2.98
2022-09-23T09:30:04.182Z,2.98
2022-09-23T09:35:12.190Z,2.99
2022-09-23T09:40:19.531Z,2.98
2022-09-23T09:45:27.659Z,2.98
2022-09-23T09:50:36.050Z,2.98
2022-09-23T09:55:43.673Z,2.97
2022-09-23T10:00:52.343Z,2.97
2022-09-23T10:06:00.129Z,2.98
2022-09-23T10:11:07.836Z,2.98
2022-09-23T10:16:16.123Z,2.98
2022-09-23T10:21:25.019Z,2.97
2022-09-23T10:26:32.537Z,2.98
2022-09-23T10:31:40.083Z,2.98
2022-09-23T10:36:48.107Z,2.98
2022-09-23T10:41:54.757Z,2.98
2022-09-23T10:47:01.324Z,2.98
2022-09-23T10:52:09.280Z,2.98
2022-09-23T10:57:16.481Z,2.98
2022-09-23T11:02:25.236Z,2.98
2022-09-23T11:07:33.332Z,2.99
2022-09-23T11:12:39.903Z,2.99
2022-09-23T11:17:47.739Z,2.98
2022-09-23T11:22:55.515Z,2.98
2022-09-23T11:28:03.372Z,2.98
2022-09-23T11:33:11.260Z,2.98
2022-09-23T11:38:19.714Z,2.98
2022-09-23T11:43:27.768Z,2.99
2022-09-23T11:48:34.837Z,2.98
2022-09-23T11:53:42.834Z,3.0
2022-09-23T11:58:50.473Z,2.99
2022-09-23T12:03:59.706Z,2.98
2022-09-23T12:09:07.489Z,2.99
2022-09-23T12:14:13.997Z,2.99
2022-09-23T12:19:22.528Z,2.99
2022-09-23T12:24:31.543Z,2.98
2022-09-23T12:29:42.274Z,2.99
2022-09-23T12:34:49.878Z,2.98
2022-09-23T12:39:56.385Z,2.98
2022-09-23T12:45:05.183Z,2.98
2022-09-23T12:50:12.724Z,2.99
2022-09-23T12:55:21.703Z,2.98
2022-09-23T13:00:29.399Z,2.98
2022-09-23T13:05:37.561Z,2.99
2022-09-23T13:10:44.765Z,2.98
2022-09-23T13:15:52.244Z,2.98
2022-09-23T13:20:59.174Z,2.98
2022-09-23T13:26:07.171Z,2.98
2022-09-23T13:31:15.438Z,2.98
2022-09-23T13:36:23.781Z,2.99
2022-09-23T13:41:31.632Z,2.97
2022-09-23T13:46:39.027Z,2.97
2022-09-23T13:51:47.185Z,2.98
2022-09-23T13:56:54.685Z,2.97
2022-09-23T14:02:02.618Z,2.97
2022-09-23T14:07:09.742Z,2.98
2022-09-23T14:12:18.028Z,2.97
2022-09-23T14:17:25.977Z,2.97
2022-09-23T14:22:32.523Z,2.97
2022-09-23T14:27:40.900Z,2.97
2022-09-23T14:32:47.899Z,2.96
2022-09-23T14:37:56.206Z,2.97
2022-09-23T14:43:04.607Z,2.97
2022-09-23T14:48:12.143Z,2.97
2022-09-23T14:53:19.022Z,2.96
2022-09-23T14:58:26.648Z,2.97
2022-09-23T15:03:33.416Z,2.97
2022-09-23T15:08:41.837Z,2.97
2022-09-23T15:13:50.726Z,2.96
2022-09-23T15:18:59.585Z,2.96
2022-09-23T15:24:06.656Z,2.96
2022-09-23T15:29:13.857Z,2.96
2022-09-23T15:34:21.050Z,2.96
2022-09-23T15:39:28.481Z,2.97
2022-09-23T15:44:36.780Z,2.96
2022-09-23T15:49:44.936Z,2.95
2022-09-23T15:54:52.830Z,2.96
2022-09-23T15:59:59.615Z,2.95
2022-09-23T16:05:07.069Z,2.96
2022-09-23T16:10:14.599Z,2.95
2022-09-23T16:15:21.678Z,2.95
2022-09-23T16:20:27.810Z,2.95
2022-09-23T16:25:35.623Z,2.95
2022-09-23T16:30:43.097Z,2.95
2022-09-23T16:35:50.659Z,2.95
2022-09-23T16:40:58.500Z,2.95
2022-09-23T16:46:06.342Z,2.94
2022-09-23T16:51:14.556Z,2.95
2022-09-23T16:56:22.078Z,2.94
2022-09-23T17:01:30.583Z,2.94
2022-09-23T17:06:37.704Z,2.94
2022-09-23T17:11:50.030Z,2.94
2022-09-23T17:16:57.220Z,2.95
2022-09-23T17:22:05.220Z,2.94
2022-09-23T17:27:12.272Z,2.94
2022-09-23T17:32:19.469Z,2.94
2022-09-23T17:37:27.318Z,2.94
2022-09-23T17:42:35.142Z,2.93
2022-09-23T17:47:42.339Z,2.93
2022-09-23T17:52:49.750Z,2.92
2022-09-23T17:57:56.756Z,2.95
2022-09-23T18:03:04.774Z,2.93
2022-09-23T18:08:12.543Z,2.94
2022-09-23T18:13:19.628Z,2.94
2022-09-23T18:18:28.010Z,2.93
2022-09-23T18:23:35.993Z,2.92
2022-09-23T18:28:44.182Z,2.92
2022-09-23T18:33:50.987Z,2.92
2022-09-23T18:38:58.924Z,2.91
2022-09-23T18:44:06.618Z,2.92
2022-09-23T18:49:13.945Z,2.92
2022-09-23T18:54:22.888Z,2.93
2022-09-23T18:59:30.196Z,2.93
2022-09-23T19:04:37.433Z,2.91
2022-09-23T19:09:45.137Z,2.92
2022-09-23T19:14:53.120Z,2.92
2022-09-23T19:20:00.914Z,2.92
2022-09-23T19:25:09.326Z,2.91
2022-09-23T19:30:17.285Z,2.92
2022-09-23T19:35:25.439Z,2.91
2022-09-23T19:40:39.313Z,2.92
2022-09-23T19:45:48.434Z,2.91
2022-09-23T19:51:17.759Z,2.91
2022-09-23T19:56:25.921Z,2.9
2022-09-23T20:01:32.482Z,2.91
2022-09-23T20:06:39.682Z,2.91
2022-09-23T20:11:48.398Z,2.9
2022-09-23T20:16:56.726Z,2.92
2022-09-23T20:22:04.441Z,2.91
2022-09-23T20:27:11.638Z,2.91
2022-09-23T20:32:18.909Z,2.91
2022-09-23T20:37:27.850Z,2.92
2022-09-23T20:42:36.349Z,2.92
2022-09-23T20:47:43.668Z,2.91
2022-09-23T20:53:06.135Z,2.91
2022-09-23T20:58:13.631Z,2.91
2022-09-23T21:03:20.757Z,2.91
2022-09-23T21:08:29.429Z,2.91
2022-09-23T21:13:36.918Z,2.91
2022-09-23T21:18:45.152Z,2.91
2022-09-23T21:23:52.614Z,2.91
2022-09-23T21:29:00.968Z,2.91
2022-09-23T21:34:09.775Z,2.92
2022-09-23T21:39:17.377Z,2.9
2022-09-23T21:44:24.595Z,2.9
2022-09-23T21:49:33.088Z,2.9
2022-09-23T21:54:41.439Z,2.91
2022-09-23T21:59:49.071Z,2.9
2022-09-23T22:05:03.371Z,2.92
2022-09-23T22:10:11.398Z,2.9
2022-09-23T22:15:17.383Z,2.9
2022-09-23T22:20:25.699Z,2.9
2022-09-23T22:25:33.679Z,2.9
2022-09-23T22:30:41.951Z,2.9
2022-09-23T22:35:49.441Z,2.91
2022-09-23T22:40:56.316Z,2.89
2022-09-23T22:46:06.869Z,2.89
2022-09-23T22:51:15.503Z,2.9
2022-09-23T22:56:22.674Z,2.9
2022-09-23T23:01:31.222Z,2.89
2022-09-23T23:06:40.081Z,2.89
2022-09-23T23:11:46.832Z,2.89
2022-09-23T23:16:54.196Z,2.9
2022-09-23T23:22:01.971Z,2.91
2022-09-23T23:27:10.208Z,2.9
2022-09-23T23:32:18.718Z,2.9
2022-09-23T23:37:26.637Z,2.9
2022-09-23T23:42:34.517Z,2.9
2022-09-23T23:47:42.303Z,2.9
2022-09-23T23:52:50.549Z,2.91
2022-09-23T23:57:57.409Z,2.89
